Time;durP1;ratioP1;P1;durP2;ratioP2;P2;SDS_P1;SDS_P2;PMS_P1;PMS_P2;Temp;Humidity;BMP_temperature;BMP_pressure;BME280_temperature;BME280_humidity;BME280_pressure;Samples;Min_cycle;Max_cycle;Signal;HPM_P1;HPM_P2
2021/11/09 00:00:17;;;;;;;9.52;3.47;;;8.90;90.10;;;;;;4979540;28;20073;-88
2021/11/09 00:02:44;;;;;;;6.80;3.28;;;8.90;90.20;;;;;;4996676;28;20027;-88
2021/11/09 00:05:13;;;;;;;5.47;4.05;;;8.90;90.20;;;;;;4979711;28;20034;-88
2021/11/09 00:07:45;;;;;;;5.22;3.03;;;8.90;90.10;;;;;;4979471;28;20493;-88
2021/11/09 00:10:12;;;;;;;6.55;3.42;;;8.90;90.10;;;;;;4979514;28;20142;-88
2021/11/09 00:12:50;;;;;;;4.93;3.85;;;8.90;90.10;;;;;;4979232;28;20477;-89
2021/11/09 00:15:18;;;;;;;5.40;3.30;;;8.90;89.80;;;;;;4979815;28;20385;-89
2021/11/09 00:17:46;;;;;;;5.50;3.15;;;8.80;89.80;;;;;;4996482;28;20022;-88
2021/11/09 00:20:14;;;;;;;5.47;3.00;;;8.80;89.90;;;;;;4996666;28;20027;-88
2021/11/09 00:22:40;;;;;;;4.35;2.83;;;8.70;90.00;;;;;;4979207;28;20054;-88
2021/11/09 00:25:07;;;;;;;6.65;3.53;;;8.60;90.00;;;;;;4979121;28;20085;-88
2021/11/09 00:27:34;;;;;;;4.68;3.15;;;8.60;90.20;;;;;;4978920;28;20377;-88
2021/11/09 00:30:01;;;;;;;5.22;3.25;;;8.50;90.30;;;;;;4978871;28;20497;-88
2021/11/09 00:32:27;;;;;;;4.05;2.80;;;8.50;90.40;;;;;;4978960;28;20034;-88
2021/11/09 00:34:53;;;;;;;3.30;2.42;;;8.40;90.60;;;;;;4995787;28;20488;-88
2021/11/09 00:37:19;;;;;;;3.53;3.00;;;8.40;90.70;;;;;;4996150;28;20026;-88
2021/11/09 00:39:45;;;;;;;3.80;2.55;;;8.40;90.80;;;;;;4996121;28;20077;-88
2021/11/09 00:42:11;;;;;;;2.90;2.55;;;8.40;90.90;;;;;;4996070;28;20385;-88
2021/11/09 00:44:37;;;;;;;8.63;3.00;;;8.40;90.90;;;;;;4978584;28;20030;-88
2021/11/09 00:47:03;;;;;;;3.50;2.78;;;8.40;91.00;;;;;;4996007;28;20034;-88
2021/11/09 00:49:29;;;;;;;4.25;3.10;;;8.40;91.00;;;;;;4978607;28;20026;-88
2021/11/09 00:51:55;;;;;;;4.93;2.45;;;8.40;91.00;;;;;;4978520;28;20026;-88
2021/11/09 00:54:20;;;;;;;4.70;2.80;;;8.40;91.10;;;;;;4978253;28;20069;-88
2021/11/09 00:56:46;;;;;;;9.00;3.47;;;8.40;91.10;;;;;;4995768;28;20037;-88
2021/11/09 00:59:13;;;;;;;7.95;3.50;;;8.40;91.10;;;;;;4978238;28;20113;-88
2021/11/09 01:01:38;;;;;;;4.13;2.60;;;8.40;91.10;;;;;;4995647;28;20050;-88
2021/11/09 01:04:06;;;;;;;5.43;2.90;;;8.30;91.10;;;;;;4995670;28;20069;-88
2021/11/09 01:06:32;;;;;;;5.80;4.00;;;8.40;91.20;;;;;;4995275;28;20054;-88
2021/11/09 01:08:58;;;;;;;5.40;2.72;;;8.40;91.20;;;;;;4995347;28;20030;-88
2021/11/09 01:11:25;;;;;;;4.03;2.90;;;8.40;91.30;;;;;;4995567;28;20026;-88
2021/11/09 01:13:51;;;;;;;4.15;2.92;;;8.40;91.30;;;;;;4995284;28;20520;-88
2021/11/09 01:16:17;;;;;;;4.10;2.50;;;8.40;91.30;;;;;;4977915;28;20026;-88
2021/11/09 01:18:52;;;;;;;4.03;2.67;;;8.40;91.30;;;;;;4978035;28;20022;-88
2021/11/09 01:21:19;;;;;;;3.90;2.65;;;8.40;91.30;;;;;;4978075;28;20117;-88
2021/11/09 01:23:49;;;;;;;4.63;2.53;;;8.40;91.40;;;;;;4977849;28;20037;-88
2021/11/09 01:26:16;;;;;;;4.68;3.10;;;8.40;91.40;;;;;;4977703;28;20027;-88
2021/11/09 01:28:43;;;;;;;4.38;2.67;;;8.50;91.50;;;;;;4995383;28;20054;-88
2021/11/09 01:31:09;;;;;;;4.38;2.97;;;8.50;91.40;;;;;;4995287;28;20047;-88
2021/11/09 01:33:36;;;;;;;4.47;2.72;;;8.40;91.40;;;;;;4994839;28;20038;-89
2021/11/09 01:36:03;;;;;;;6.30;2.95;;;8.40;91.30;;;;;;4977576;28;20030;-88
2021/11/09 01:38:29;;;;;;;4.18;2.92;;;8.40;91.40;;;;;;4995000;28;20466;-88
2021/11/09 01:40:55;;;;;;;4.88;3.17;;;8.40;91.40;;;;;;4977506;28;20030;-88
2021/11/09 01:43:25;;;;;;;5.32;2.90;;;8.40;91.40;;;;;;4994759;28;20075;-88
2021/11/09 01:45:51;;;;;;;6.72;3.38;;;8.40;91.50;;;;;;4977389;28;20041;-88
2021/11/09 01:48:18;;;;;;;4.55;3.25;;;8.40;91.50;;;;;;4977611;28;20378;-88
2021/11/09 01:50:49;;;;;;;5.30;2.92;;;8.30;91.40;;;;;;4977221;28;20027;-88
2021/11/09 01:53:16;;;;;;;5.30;3.35;;;8.30;91.50;;;;;;4977839;28;20393;-88
2021/11/09 01:55:42;;;;;;;4.05;2.85;;;8.20;91.60;;;;;;4977751;28;20027;-88
2021/11/09 01:58:10;;;;;;;4.78;2.58;;;8.20;91.70;;;;;;4977836;28;20027;-88
2021/11/09 02:00:57;;;;;;;5.05;3.15;;;8.20;91.80;;;;;;4977254;28;20533;-88
2021/11/09 02:03:25;;;;;;;6.15;3.15;;;8.20;91.90;;;;;;4977711;28;20050;-88
2021/11/09 02:05:52;;;;;;;7.32;3.22;;;8.20;91.90;;;;;;4977536;28;20382;-88
2021/11/09 02:08:20;;;;;;;4.90;2.65;;;8.20;92.00;;;;;;4977245;28;20030;-88
2021/11/09 02:10:47;;;;;;;6.95;3.55;;;8.10;92.00;;;;;;4977626;28;20461;-88
2021/11/09 02:13:15;;;;;;;5.03;2.65;;;8.10;92.10;;;;;;4977291;28;20552;-88
2021/11/09 02:15:41;;;;;;;7.60;3.22;;;8.10;92.20;;;;;;4977066;28;20039;-89
2021/11/09 02:18:11;;;;;;;4.55;3.05;;;8.10;92.50;;;;;;4977087;28;20053;-88
2021/11/09 02:20:38;;;;;;;5.07;2.65;;;8.10;92.30;;;;;;4994865;28;20031;-88
2021/11/09 02:23:05;;;;;;;4.00;2.95;;;8.10;92.30;;;;;;4977158;28;20026;-87
2021/11/09 02:25:32;;;;;;;6.68;3.30;;;8.10;92.30;;;;;;4977364;28;20031;-88
2021/11/09 02:28:01;;;;;;;8.32;4.25;;;8.00;92.50;;;;;;4994324;28;20178;-89
2021/11/09 02:30:29;;;;;;;4.53;3.42;;;8.00;92.50;;;;;;4994177;28;20047;-88
2021/11/09 02:32:56;;;;;;;4.72;3.40;;;8.00;92.60;;;;;;4977083;28;20181;-88
2021/11/09 02:35:23;;;;;;;6.25;3.55;;;8.00;92.60;;;;;;4977546;28;20560;-88
2021/11/09 02:37:53;;;;;;;5.72;3.95;;;8.00;92.70;;;;;;4977423;28;20022;-88
2021/11/09 02:40:20;;;;;;;4.97;3.63;;;8.00;92.80;;;;;;4977393;28;20022;-88
2021/11/09 02:42:49;;;;;;;3.85;2.83;;;8.00;92.80;;;;;;4977095;28;20125;-88
2021/11/09 02:45:21;;;;;;;6.10;3.83;;;8.00;92.90;;;;;;4977187;28;20039;-88
2021/11/09 02:48:06;;;;;;;4.13;2.83;;;8.00;93.00;;;;;;4977376;28;20030;-88
2021/11/09 02:50:37;;;;;;;7.82;3.47;;;8.00;92.90;;;;;;4994670;28;20046;-88
2021/11/09 02:53:09;;;;;;;4.35;3.40;;;8.00;92.90;;;;;;4977181;28;20031;-88
2021/11/09 02:55:45;;;;;;;6.32;3.25;;;8.00;93.10;;;;;;4977472;28;20117;-88
2021/11/09 03:01:24;;;;;;;4.15;3.05;;;8.00;93.20;;;;;;4938100;29;20028;-88
2021/11/09 03:03:57;;;;;;;7.28;3.30;;;8.00;93.20;;;;;;4972553;28;20045;-88
2021/11/09 03:08:57;;;;;;;9.18;3.20;;;7.90;93.30;;;;;;4998361;28;20262;-88
2021/11/09 03:11:24;;;;;;;7.50;3.00;;;7.90;93.40;;;;;;4990372;28;20033;-88
2021/11/09 03:13:51;;;;;;;4.20;3.72;;;8.00;93.50;;;;;;4980555;28;20037;-88
2021/11/09 03:16:17;;;;;;;8.40;4.18;;;8.00;93.50;;;;;;4981078;28;20030;-88
2021/11/09 03:46:42;;;;;;;4.32;2.92;;;8.10;94.10;;;;;;4997513;28;20118;-88
2021/11/09 03:49:08;;;;;;;6.30;3.58;;;8.10;94.10;;;;;;4979657;28;20031;-88
2021/11/09 03:51:35;;;;;;;4.00;2.72;;;8.10;94.20;;;;;;4980577;28;20346;-88
2021/11/09 03:54:03;;;;;;;5.28;3.90;;;8.10;94.20;;;;;;4997001;28;20034;-88
2021/11/09 03:56:44;;;;;;;5.43;3.55;;;8.10;94.50;;;;;;4997141;28;20034;-88
2021/11/09 03:59:23;;;;;;;5.05;3.15;;;8.10;94.30;;;;;;4997032;28;20027;-88
2021/11/09 04:07:00;;;;;;;5.00;3.45;;;8.20;94.30;;;;;;4997038;28;20157;-88
2021/11/09 04:09:35;;;;;;;3.53;2.38;;;8.20;94.40;;;;;;4997122;28;20026;-89
2021/11/09 04:25:13;;;;;;;6.45;3.15;;;8.10;94.70;;;;;;4996557;28;20034;-88
2021/11/09 04:27:58;;;;;;;6.15;3.92;;;8.20;94.70;;;;;;4996630;28;20106;-88
2021/11/09 05:10:16;;;;;;;5.90;3.10;;;7.10;96.90;;;;;;4995438;28;20045;-88
2021/11/09 05:12:44;;;;;;;9.43;4.30;;;7.10;96.80;;;;;;4977910;28;20026;-86
2021/11/09 05:15:09;;;;;;;8.13;4.70;;;7.10;97.10;;;;;;4977972;28;20027;-88
2021/11/09 05:17:35;;;;;;;9.05;3.63;;;7.10;97.10;;;;;;4978144;28;20034;-88
2021/11/09 05:20:01;;;;;;;11.23;4.32;;;7.10;97.20;;;;;;4978318;28;20505;-88
2021/11/09 05:22:27;;;;;;;6.93;3.72;;;7.00;97.40;;;;;;4979232;28;20027;-88
2021/11/09 05:24:52;;;;;;;9.98;3.92;;;7.10;97.70;;;;;;4977624;28;20037;-88
2021/11/09 05:27:18;;;;;;;5.65;3.83;;;7.10;97.90;;;;;;4995033;28;20023;-88
2021/11/09 05:29:45;;;;;;;5.40;4.10;;;7.10;98.10;;;;;;4976329;28;20081;-87
2021/11/09 05:32:11;;;;;;;6.25;3.03;;;7.20;98.00;;;;;;4976042;28;20027;-88
2021/11/09 05:34:37;;;;;;;5.05;3.10;;;7.20;98.00;;;;;;4976011;28;20465;-88
2021/11/09 05:37:04;;;;;;;5.65;4.10;;;7.30;98.00;;;;;;4958889;28;20091;-87
2021/11/09 05:39:32;;;;;;;4.63;3.17;;;7.30;98.00;;;;;;4957767;28;20031;-88
2021/11/09 05:41:58;;;;;;;7.38;3.45;;;7.40;98.00;;;;;;4975316;28;20030;-87
2021/11/09 05:44:24;;;;;;;10.20;3.40;;;7.50;98.00;;;;;;4959255;28;20027;-88
2021/11/09 05:46:49;;;;;;;4.57;3.08;;;7.60;98.00;;;;;;4958134;28;20026;-88
2021/11/09 05:49:15;;;;;;;7.95;4.95;;;7.60;97.90;;;;;;4957949;28;20027;-88
2021/11/09 05:51:41;;;;;;;7.85;4.72;;;7.70;97.80;;;;;;4975418;28;20026;-88
2021/11/09 05:54:09;;;;;;;7.75;4.78;;;7.70;97.90;;;;;;4957701;28;20034;-88
2021/11/09 05:56:34;;;;;;;6.75;3.45;;;7.70;97.80;;;;;;4957605;28;20057;-88
2021/11/09 05:59:00;;;;;;;8.43;4.05;;;7.80;97.90;;;;;;4958218;28;20129;-88
2021/11/09 06:01:26;;;;;;;11.55;4.82;;;7.80;97.70;;;;;;4958071;28;20454;-87
2021/11/09 06:03:52;;;;;;;6.47;3.70;;;7.90;97.80;;;;;;4958329;28;20038;-88
2021/11/09 06:06:18;;;;;;;6.22;4.07;;;7.80;97.70;;;;;;4974850;28;20470;-88
2021/11/09 06:08:46;;;;;;;7.30;4.38;;;7.90;97.70;;;;;;4957517;28;20121;-88
2021/11/09 06:11:12;;;;;;;10.65;5.22;;;7.90;97.70;;;;;;4974894;28;20023;-88
2021/11/09 06:13:38;;;;;;;6.68;3.92;;;7.80;97.60;;;;;;4957785;28;20371;-88
2021/11/09 06:16:04;;;;;;;7.50;3.97;;;7.80;97.70;;;;;;4957642;28;20038;-88
2021/11/09 06:18:30;;;;;;;4.28;3.38;;;7.80;97.70;;;;;;4974891;28;20027;-88
2021/11/09 06:20:56;;;;;;;3.72;2.80;;;7.90;97.60;;;;;;4957873;28;20071;-88
2021/11/09 06:23:21;;;;;;;3.83;2.13;;;7.90;97.40;;;;;;4958143;28;20038;-88
2021/11/09 06:25:47;;;;;;;3.17;2.03;;;7.90;97.30;;;;;;4974931;28;20113;-88
2021/11/09 06:28:17;;;;;;;1.77;1.60;;;7.90;96.90;;;;;;4957359;28;20462;-89
2021/11/09 06:30:44;;;;;;;2.45;2.22;;;7.90;97.10;;;;;;4985397;28;20054;-89
2021/11/09 06:33:09;;;;;;;2.78;2.03;;;7.90;97.30;;;;;;4980635;28;20045;-89
2021/11/09 06:35:35;;;;;;;2.63;2.05;;;7.80;97.00;;;;;;4980854;28;20038;-89
2021/11/09 06:38:01;;;;;;;2.97;2.53;;;7.80;97.10;;;;;;4980654;28;20038;-89
2021/11/09 06:40:26;;;;;;;2.58;1.60;;;7.80;97.20;;;;;;4980480;28;20027;-89
2021/11/09 06:42:52;;;;;;;2.95;2.50;;;7.70;97.10;;;;;;4982216;28;20026;-89
2021/11/09 06:45:18;;;;;;;4.05;2.05;;;7.70;97.20;;;;;;4981348;28;20026;-89
2021/11/09 06:47:44;;;;;;;3.25;2.42;;;7.80;96.90;;;;;;4998375;28;20057;-89
2021/11/09 06:50:11;;;;;;;2.65;2.33;;;7.80;96.80;;;;;;4980929;28;20034;-89
2021/11/09 06:52:36;;;;;;;3.08;2.30;;;7.80;96.80;;;;;;4980338;28;20117;-89
2021/11/09 06:55:04;;;;;;;2.30;2.03;;;7.80;96.70;;;;;;4980613;28;20490;-89
2021/11/09 06:57:30;;;;;;;3.95;2.63;;;7.80;96.70;;;;;;4980291;28;20035;-89
2021/11/09 06:59:55;;;;;;;2.88;2.58;;;7.90;96.50;;;;;;4998247;28;20346;-89
2021/11/09 07:02:21;;;;;;;4.03;2.40;;;7.90;96.00;;;;;;4980195;28;20509;-89
2021/11/09 07:04:47;;;;;;;2.50;2.30;;;7.90;96.20;;;;;;4980051;28;20039;-89
2021/11/09 07:07:12;;;;;;;2.65;2.45;;;7.80;96.20;;;;;;4980917;28;20121;-89
2021/11/09 07:09:38;;;;;;;3.10;1.77;;;7.80;96.30;;;;;;4997636;28;20049;-89
2021/11/09 07:12:04;;;;;;;6.15;2.10;;;7.90;96.30;;;;;;4980053;28;20058;-89
2021/11/09 07:14:30;;;;;;;3.55;2.30;;;7.90;95.80;;;;;;4980035;28;20104;-89
2021/11/09 07:16:56;;;;;;;3.25;2.10;;;7.80;95.20;;;;;;4980136;28;20058;-89
2021/11/09 07:19:22;;;;;;;3.47;2.03;;;7.70;95.40;;;;;;4980436;28;20061;-89
2021/11/09 07:21:49;;;;;;;1.73;1.60;;;7.70;95.20;;;;;;4979678;28;20058;-89
2021/11/09 07:24:15;;;;;;;2.50;1.70;;;7.50;95.20;;;;;;4980704;28;20030;-88
2021/11/09 07:26:41;;;;;;;2.40;1.75;;;7.50;94.90;;;;;;4981017;28;20363;-89
2021/11/09 07:29:07;;;;;;;2.30;1.88;;;7.40;95.20;;;;;;4997654;28;20027;-88
2021/11/09 07:31:33;;;;;;;2.58;1.73;;;7.40;95.30;;;;;;4979234;28;20065;-88
2021/11/09 07:34:03;;;;;;;3.88;1.90;;;7.40;95.20;;;;;;4997302;28;20079;-89
2021/11/09 07:36:28;;;;;;;4.22;2.30;;;7.30;95.10;;;;;;4979559;28;20034;-88
2021/11/09 07:38:58;;;;;;;2.03;1.80;;;7.30;95.00;;;;;;4980009;28;20030;-88
2021/11/09 07:41:24;;;;;;;3.28;2.30;;;7.30;94.90;;;;;;4979372;28;20022;-90
2021/11/09 07:43:50;;;;;;;2.53;1.75;;;7.20;95.00;;;;;;4996491;28;20109;-90
2021/11/09 07:46:16;;;;;;;2.15;1.70;;;7.30;95.10;;;;;;4996643;28;20061;-89
2021/11/09 07:48:42;;;;;;;4.18;1.80;;;7.30;95.00;;;;;;4979062;28;20031;-89
2021/11/09 07:51:08;;;;;;;2.88;2.15;;;7.30;94.60;;;;;;4979948;28;20033;-89
2021/11/09 07:53:35;;;;;;;4.65;1.88;;;7.30;94.90;;;;;;4980233;28;20037;-89
2021/11/09 07:56:19;;;;;;;2.53;1.90;;;7.30;94.80;;;;;;4981067;28;20049;-89
2021/11/09 07:58:54;;;;;;;2.50;2.03;;;7.30;94.70;;;;;;4980474;28;20113;-90
2021/11/09 08:01:33;;;;;;;2.45;1.65;;;7.30;94.20;;;;;;4997497;28;20155;-90
2021/11/09 08:06:27;;;;;;;3.85;2.15;;;7.20;93.80;;;;;;4997555;28;20113;-90
2021/11/09 08:09:09;;;;;;;1.98;1.80;;;7.10;93.90;;;;;;4979343;28;20030;-89
2021/11/09 08:11:37;;;;;;;2.55;2.17;;;7.10;94.00;;;;;;4979524;28;20031;-91
2021/11/09 08:14:03;;;;;;;1.88;1.73;;;7.00;93.90;;;;;;4978930;28;20030;-91
2021/11/09 08:16:29;;;;;;;2.40;2.20;;;7.00;94.20;;;;;;4979274;28;20026;-91
2021/11/09 08:18:54;;;;;;;2.92;1.90;;;7.10;94.00;;;;;;4979124;28;20034;-89
2021/11/09 08:21:20;;;;;;;2.17;1.98;;;7.30;93.60;;;;;;4996097;28;20030;-89
2021/11/09 08:23:49;;;;;;;4.10;2.85;;;7.30;92.50;;;;;;4996098;28;20034;-88
2021/11/09 08:26:21;;;;;;;2.92;2.05;;;7.20;91.80;;;;;;4980547;28;20026;-89
2021/11/09 08:28:48;;;;;;;2.35;1.92;;;7.10;91.80;;;;;;4982161;28;20022;-90
2021/11/09 08:31:17;;;;;;;4.05;2.38;;;7.00;92.00;;;;;;4979800;28;20374;-89
2021/11/09 08:33:43;;;;;;;2.80;2.42;;;7.10;92.10;;;;;;4979175;28;20458;-88
2021/11/09 08:36:14;;;;;;;2.55;2.13;;;7.20;92.30;;;;;;4979400;28;20125;-88
2021/11/09 08:38:40;;;;;;;4.03;2.78;;;7.30;92.10;;;;;;4981168;28;20075;-89
2021/11/09 08:41:06;;;;;;;1.92;1.83;;;7.40;91.90;;;;;;4980667;28;20488;-89
2021/11/09 08:43:36;;;;;;;3.38;2.67;;;7.50;91.50;;;;;;4978026;28;20122;-89
2021/11/09 08:46:20;;;;;;;2.63;2.13;;;7.50;91.30;;;;;;4996549;28;20022;-89
2021/11/09 08:48:49;;;;;;;1.85;1.75;;;7.60;90.30;;;;;;4978995;28;20080;-89
2021/11/09 08:51:16;;;;;;;2.17;1.98;;;7.60;89.00;;;;;;4978475;28;20088;-89
2021/11/09 08:53:51;;;;;;;2.97;2.15;;;7.60;86.70;;;;;;4977711;28;20030;-88
2021/11/09 09:06:37;;;;;;;1.58;1.48;;;7.40;88.90;;;;;;4995854;28;20037;-88
2021/11/09 09:09:04;;;;;;;1.52;1.42;;;7.40;88.10;;;;;;4978498;28;20026;-88
2021/11/09 09:11:31;;;;;;;1.70;1.60;;;7.40;86.40;;;;;;4995741;28;20022;-88
2021/11/09 09:13:58;;;;;;;2.50;2.28;;;7.40;86.50;;;;;;4977656;28;20085;-89
2021/11/09 09:16:25;;;;;;;6.75;1.85;;;7.40;87.10;;;;;;4977785;28;20030;-87
2021/11/09 09:18:53;;;;;;;1.95;1.85;;;7.40;85.50;;;;;;4996277;28;20421;-89
2021/11/09 09:21:28;;;;;;;2.25;1.75;;;7.30;85.50;;;;;;4979987;28;20068;-89
2021/11/09 09:23:58;;;;;;;2.10;1.90;;;7.30;85.60;;;;;;4981627;28;20031;-89
2021/11/09 09:57:06;;;;;;;;;;;7.20;83.10;;;;;;4897302;29;20097;-90
2021/11/09 09:59:35;;;;;;;2.53;2.03;;;7.20;80.90;;;;;;4945383;28;19906;-90
2021/11/09 10:02:10;;;;;;;2.65;2.00;;;7.20;81.40;;;;;;4975699;28;20023;-89
2021/11/09 10:04:46;;;;;;;1.90;1.80;;;7.10;81.40;;;;;;4980902;28;20034;-92
2021/11/09 10:07:39;;;;;;;1.98;1.65;;;7.10;82.30;;;;;;4983392;28;20120;-91
2021/11/09 10:10:51;;;;;;;1.70;1.60;;;7.30;81.20;;;;;;4998767;28;20445;-94
2021/11/09 10:13:38;;;;;;;2.17;1.60;;;7.30;79.20;;;;;;5004940;28;20038;-95
2021/11/09 10:16:17;;;;;;;1.60;1.50;;;7.30;79.20;;;;;;4991465;28;20074;-94
2021/11/09 10:18:50;;;;;;;4.43;2.08;;;7.10;79.50;;;;;;4980270;28;20087;-95
2021/11/09 10:21:41;;;;;;;2.13;1.70;;;7.10;79.60;;;;;;5007712;28;20034;-94
2021/11/09 10:24:35;;;;;;;2.72;2.03;;;7.10;79.70;;;;;;4954843;28;20114;-94
2021/11/09 10:30:31;;;;;;;2.28;2.03;;;7.10;80.10;;;;;;5238191;23;20036;-93
2021/11/09 10:33:24;;;;;;;;;;;7.30;77.80;;;;;;4923597;28;20067;-94
2021/11/09 10:36:01;;;;;;;1.38;1.27;;;7.20;77.90;;;;;;4973715;29;19957;-95
2021/11/09 10:38:42;;;;;;;2.83;1.58;;;7.30;77.70;;;;;;4958039;29;20062;-95
2021/11/09 10:50:26;;;;;;;1.80;1.70;;;7.00;74.40;;;;;;5027135;28;20103;-95
2021/11/09 10:56:21;;;;;;;2.53;2.30;;;7.00;75.80;;;;;;4999059;28;20039;-96
2021/11/09 11:04:46;;;;;;;2.40;1.88;;;7.00;74.00;;;;;;5034474;23;20077;-94
2021/11/09 11:07:14;;;;;;;2.08;1.80;;;7.00;74.30;;;;;;5011103;28;20026;-95
2021/11/09 11:09:41;;;;;;;2.38;1.50;;;7.10;75.50;;;;;;5005650;28;20121;-96
2021/11/09 11:12:14;;;;;;;2.17;2.03;;;7.00;76.20;;;;;;5008298;28;20026;-94
2021/11/09 11:14:45;;;;;;;2.97;1.63;;;6.90;76.60;;;;;;4985691;28;20057;-96
2021/11/09 11:17:16;;;;;;;3.03;2.20;;;6.90;76.30;;;;;;5009769;28;20033;-96
2021/11/09 11:19:53;;;;;;;1.83;1.70;;;6.70;75.80;;;;;;5014398;28;20030;-95
2021/11/09 11:22:31;;;;;;;1.92;1.70;;;6.60;75.60;;;;;;5010645;28;20428;-96
2021/11/09 11:25:05;;;;;;;8.05;1.90;;;6.60;74.30;;;;;;5010438;28;20029;-95
2021/11/09 11:27:32;;;;;;;1.30;1.20;;;6.40;75.40;;;;;;5001056;28;20037;-93
2021/11/09 11:29:59;;;;;;;2.22;1.60;;;6.40;75.40;;;;;;5004931;28;20452;-93
2021/11/09 11:32:26;;;;;;;3.85;1.95;;;6.50;75.50;;;;;;5008580;28;20049;-92
2021/11/09 11:34:56;;;;;;;2.17;1.30;;;6.40;75.30;;;;;;5007939;28;20080;-92
2021/11/09 11:37:22;;;;;;;1.33;1.15;;;6.40;75.80;;;;;;5009337;28;20034;-93
2021/11/09 11:39:53;;;;;;;2.22;1.63;;;6.50;76.20;;;;;;5008715;28;20088;-92
2021/11/09 11:42:19;;;;;;;2.00;1.67;;;6.50;75.00;;;;;;5008575;28;20085;-92
2021/11/09 11:44:56;;;;;;;1.60;1.50;;;6.50;75.20;;;;;;5024258;28;20072;-92
2021/11/09 11:47:22;;;;;;;2.92;1.85;;;6.60;74.00;;;;;;4996775;28;20027;-92
2021/11/09 11:50:06;;;;;;;1.48;1.38;;;6.50;73.40;;;;;;5010889;28;20025;-91
2021/11/09 11:52:50;;;;;;;2.20;2.00;;;6.40;73.70;;;;;;4991774;28;20026;-91
2021/11/09 11:55:27;;;;;;;3.13;1.88;;;6.30;74.00;;;;;;4967036;28;20043;-93
2021/11/09 11:58:12;;;;;;;2.17;1.98;;;6.30;74.60;;;;;;4967446;28;20023;-92
2021/11/09 12:00:53;;;;;;;2.65;2.15;;;6.20;75.40;;;;;;4968696;28;20117;-93
2021/11/09 12:03:19;;;;;;;4.07;2.28;;;6.20;76.00;;;;;;4967775;28;20055;-92
2021/11/09 12:05:47;;;;;;;2.00;1.90;;;6.30;74.20;;;;;;4974683;28;20040;-93
2021/11/09 12:08:15;;;;;;;2.30;1.95;;;6.30;72.90;;;;;;4987364;28;20062;-94
2021/11/09 12:10:53;;;;;;;2.03;1.83;;;6.30;70.90;;;;;;4990123;28;20031;-92
2021/11/09 12:13:21;;;;;;;2.78;1.92;;;6.20;70.90;;;;;;5007665;28;20040;-93
2021/11/09 12:15:55;;;;;;;3.47;2.05;;;6.20;71.20;;;;;;4988002;28;20033;-93
2021/11/09 12:18:36;;;;;;;2.22;2.03;;;6.30;70.30;;;;;;4986896;28;20121;-93
2021/11/09 12:21:22;;;;;;;3.00;1.95;;;6.40;70.30;;;;;;5005397;28;20052;-93
2021/11/09 12:24:08;;;;;;;2.80;2.55;;;6.40;71.10;;;;;;4988327;28;20030;-93
2021/11/09 12:26:46;;;;;;;2.47;2.13;;;6.50;68.50;;;;;;4988792;28;20045;-92
2021/11/09 12:29:40;;;;;;;1.85;1.70;;;6.50;68.80;;;;;;4988081;28;20031;-93
2021/11/09 12:32:21;;;;;;;1.52;1.42;;;6.40;66.50;;;;;;4987209;28;20042;-94
2021/11/09 12:35:07;;;;;;;1.88;1.77;;;6.30;65.80;;;;;;4988697;28;20061;-93
2021/11/09 12:37:35;;;;;;;1.67;1.52;;;6.30;65.30;;;;;;4987652;28;20488;-93
2021/11/09 12:40:31;;;;;;;1.98;1.85;;;6.30;66.40;;;;;;4987557;28;20027;-93
2021/11/09 12:43:11;;;;;;;1.90;1.60;;;6.30;66.00;;;;;;4987105;28;20026;-93
2021/11/09 12:45:43;;;;;;;3.10;1.90;;;6.40;65.10;;;;;;4987081;28;20042;-93
2021/11/09 12:48:15;;;;;;;3.20;2.35;;;6.30;64.00;;;;;;4986976;28;20092;-93
2021/11/09 12:50:55;;;;;;;1.38;1.20;;;6.30;63.80;;;;;;4986407;28;20058;-93
2021/11/09 12:53:23;;;;;;;10.38;1.85;;;6.20;63.30;;;;;;4989450;28;20040;-92
2021/11/09 12:56:00;;;;;;;2.58;1.98;;;6.10;64.80;;;;;;5004474;28;20060;-92
2021/11/09 12:58:26;;;;;;;1.40;1.30;;;6.00;64.80;;;;;;5005858;28;20033;-93
2021/11/09 13:01:19;;;;;;;1.73;1.63;;;6.00;65.90;;;;;;5006734;28;20026;-93
2021/11/09 13:04:03;;;;;;;1.20;1.20;;;5.90;64.90;;;;;;5006523;28;20053;-93
2021/11/09 13:06:42;;;;;;;12.63;1.83;;;5.80;66.20;;;;;;5025898;23;20101;-92
2021/11/09 13:09:24;;;;;;;1.58;1.35;;;5.70;66.60;;;;;;5014718;28;20116;-91
2021/11/09 13:11:57;;;;;;;2.28;1.75;;;5.60;67.20;;;;;;5008913;28;20030;-92
2021/11/09 13:14:35;;;;;;;1.45;1.35;;;5.50;66.10;;;;;;5006208;28;20448;-92
2021/11/09 13:17:12;;;;;;;2.88;1.67;;;5.50;66.30;;;;;;5004736;28;20025;-93
2021/11/09 13:19:41;;;;;;;7.43;1.83;;;5.50;66.70;;;;;;5005978;28;20097;-94
2021/11/09 13:22:14;;;;;;;2.10;1.33;;;5.40;67.30;;;;;;5021817;28;20026;-93
2021/11/09 13:24:55;;;;;;;1.63;1.53;;;5.50;68.10;;;;;;5004715;28;20042;-94
2021/11/09 13:27:33;;;;;;;1.65;1.55;;;5.40;68.60;;;;;;5007686;28;20255;-93
2021/11/09 13:30:10;;;;;;;4.20;1.67;;;5.40;68.70;;;;;;5005107;28;20037;-93
2021/11/09 13:32:36;;;;;;;3.40;1.42;;;5.40;68.70;;;;;;4989229;28;20030;-93
2021/11/09 13:35:03;;;;;;;1.77;1.50;;;5.40;69.60;;;;;;4987707;28;20039;-93
2021/11/09 13:37:42;;;;;;;1.88;1.40;;;5.30;69.70;;;;;;4986923;28;20053;-92
2021/11/09 13:40:09;;;;;;;1.55;1.42;;;5.20;70.50;;;;;;5005901;28;20037;-93
2021/11/09 13:42:38;;;;;;;1.50;1.40;;;5.10;70.80;;;;;;4988248;28;20027;-94
2021/11/09 13:45:15;;;;;;;3.10;1.98;;;5.10;70.10;;;;;;4971367;28;20037;-93
2021/11/09 13:47:45;;;;;;;1.20;1.10;;;5.00;69.20;;;;;;4986028;28;20038;-93
2021/11/09 13:50:13;;;;;;;1.27;1.13;;;4.90;67.20;;;;;;4988941;28;20056;-93
2021/11/09 13:52:52;;;;;;;1.35;1.25;;;4.80;67.20;;;;;;4984862;28;20026;-91
2021/11/09 13:55:20;;;;;;;1.48;1.25;;;4.70;67.80;;;;;;5002628;28;20058;-93
2021/11/09 13:57:47;;;;;;;1.52;1.42;;;4.70;68.10;;;;;;5003875;28;20022;-93
2021/11/09 14:00:40;;;;;;;1.83;1.35;;;4.70;68.00;;;;;;5002522;28;20045;-93
2021/11/09 14:14:18;;;;;;;1.00;1.00;;;4.60;68.80;;;;;;4999545;28;20469;-94
2021/11/09 14:16:57;;;;;;;1.10;1.00;;;4.60;69.60;;;;;;4979244;28;20101;-94
2021/11/09 14:19:33;;;;;;;1.23;1.23;;;4.60;69.40;;;;;;4979628;28;20038;-93
2021/11/09 14:22:15;;;;;;;2.78;1.13;;;4.50;69.20;;;;;;4984046;28;20128;-93
2021/11/09 14:24:54;;;;;;;4.18;1.02;;;4.40;69.80;;;;;;4984302;28;20357;-93
2021/11/09 14:27:38;;;;;;;2.90;1.77;;;4.40;70.30;;;;;;4997381;28;20045;-94
2021/11/09 14:30:06;;;;;;;;;;;4.40;69.80;;;;;;5003403;28;20030;-93
2021/11/09 14:32:35;;;;;;;1.73;1.40;;;4.40;70.20;;;;;;5003877;28;19905;-94
2021/11/09 14:35:26;;;;;;;1.10;1.00;;;4.30;70.70;;;;;;5004891;28;20101;-94
2021/11/09 14:37:57;;;;;;;1.25;1.13;;;4.30;71.80;;;;;;5004764;28;20033;-93
2021/11/09 14:40:33;;;;;;;1.40;1.30;;;4.30;72.50;;;;;;5003860;28;20117;-94
2021/11/09 14:43:22;;;;;;;1.88;1.45;;;4.40;73.90;;;;;;5005652;28;20025;-93
2021/11/09 14:45:52;;;;;;;1.30;1.20;;;4.30;74.10;;;;;;5003933;28;20054;-93
2021/11/09 14:48:28;;;;;;;1.60;1.40;;;4.30;74.10;;;;;;5003757;28;20026;-93
2021/11/09 14:51:12;;;;;;;2.85;1.80;;;4.30;73.90;;;;;;5004344;28;20026;-93
2021/11/09 14:53:55;;;;;;;1.17;1.00;;;4.30;73.80;;;;;;4988478;28;20027;-94
2021/11/09 14:59:28;;;;;;;1.10;1.00;;;4.30;74.40;;;;;;5198905;23;19905;-93
2021/11/09 15:02:13;;;;;;;;;;;;;;;;;;;;;
2021/11/09 15:39:10;;;;;;;1.50;1.40;;;4.00;76.70;;;;;;4894038;29;20057;-93
2021/11/09 15:42:13;;;;;;;4.18;1.50;;;4.10;76.70;;;;;;4862551;29;20147;-93
2021/11/09 15:44:50;;;;;;;1.52;1.33;;;4.00;76.50;;;;;;4882677;29;20107;-93
2021/11/09 15:47:16;;;;;;;3.47;1.60;;;4.00;76.70;;;;;;4973779;28;20178;-92
2021/11/09 15:49:46;;;;;;;2.03;1.30;;;4.00;76.90;;;;;;4976393;28;20050;-90
2021/11/09 15:53:01;;;;;;;2.42;1.88;;;4.00;77.20;;;;;;4968709;28;20839;-95
2021/11/09 15:55:53;;;;;;;3.67;1.60;;;4.00;77.60;;;;;;4969453;28;20046;-96
2021/11/09 15:58:18;;;;;;;1.98;1.70;;;3.90;78.00;;;;;;4957737;28;20036;-93
2021/11/09 16:01:11;;;;;;;5.60;1.77;;;3.90;78.70;;;;;;4968204;28;20168;-94
2021/11/09 16:03:40;;;;;;;3.20;1.98;;;3.90;79.10;;;;;;4967091;28;20019;-92
2021/11/09 16:06:08;;;;;;;3.00;1.70;;;3.90;79.10;;;;;;4968221;28;20488;-91
2021/11/09 16:08:38;;;;;;;1.63;1.40;;;4.00;79.20;;;;;;4966158;28;20027;-93
2021/11/09 16:11:11;;;;;;;2.15;1.48;;;4.00;79.30;;;;;;4966974;28;20093;-91
2021/11/09 16:13:47;;;;;;;1.65;1.52;;;4.00;79.30;;;;;;4983702;28;20033;-91
2021/11/09 16:16:14;;;;;;;2.50;1.50;;;4.00;79.50;;;;;;4972245;28;20038;-93
2021/11/09 16:18:40;;;;;;;2.90;1.85;;;4.10;79.00;;;;;;4977067;28;20030;-94
2021/11/09 16:21:10;;;;;;;2.03;1.70;;;4.00;79.50;;;;;;4986239;28;20033;-94
2021/11/09 16:23:36;;;;;;;2.00;1.75;;;4.00;79.90;;;;;;4985161;28;20073;-93
2021/11/09 16:26:02;;;;;;;2.58;1.63;;;4.00;80.30;;;;;;4966963;28;20122;-92
2021/11/09 16:28:47;;;;;;;4.82;1.67;;;3.90;80.40;;;;;;4969570;28;20026;-95
2021/11/09 16:31:46;;;;;;;2.38;2.15;;;3.90;80.20;;;;;;4960007;28;20102;-95
2021/11/09 16:34:13;;;;;;;3.80;2.53;;;3.90;80.50;;;;;;4947891;28;20043;-93
2021/11/09 16:36:47;;;;;;;3.70;2.22;;;3.80;81.40;;;;;;4931387;29;20031;-95
2021/11/09 16:39:26;;;;;;;3.60;2.00;;;3.80;81.60;;;;;;4932607;28;20019;-93
2021/11/09 16:41:52;;;;;;;2.75;1.92;;;3.80;81.10;;;;;;4968774;28;20038;-92
2021/11/09 16:44:19;;;;;;;2.33;2.13;;;3.70;81.40;;;;;;4959488;28;20023;-92